Terminal Aerodrome Forecast
Issued by NWS Spokane, WA

Home | Current Version | Previous Version | Text Only | Print | Product List | Glossary On
Versions: 1 2 3 4 5 6 7 8 9 10 11 12 13 14 15 16 17 18 19 20 21 22 23 24 25 26 27 28 29 30 31 32 33 34 35 36 37 38 39 40
000
FTUS46 KOTX 202338
TAFLWS
TAF
KLWS 202338Z 2100/2124 11008KT P6SM -RA OVC040
     FM210900 17007KT 6SM -RA BR BKN018 OVC035 WS020/25038KT
     FM211200 24016G26KT P6SM -RA SCT020 OVC040
     FM212000 25018G28KT P6SM SCT040 OVC080=

USA.gov is the U.S. government's official web portal to all federal, state and local government web resources and services.